sensor_id;sensor_type;location;lat;lon;timestamp;pressure;altitude;pressure_sealevel;temperature;humidity
61014;BME280;46899;47.542;19.082;2023-05-23T00:02:23;100154.75;;;14.74;100.00
61014;BME280;46899;47.542;19.082;2023-05-23T00:05:26;100151.34;;;14.72;100.00
61014;BME280;46899;47.542;19.082;2023-05-23T00:08:30;100153.31;;;14.69;100.00
61014;BME280;46899;47.542;19.082;2023-05-23T00:11:32;100146.56;;;14.65;100.00
61014;BME280;46899;47.542;19.082;2023-05-23T00:14:35;100136.31;;;14.60;100.00
61014;BME280;46899;47.542;19.082;2023-05-23T00:17:37;100136.25;;;14.62;100.00
61014;BME280;46899;47.542;19.082;2023-05-23T00:20:41;100143.66;;;14.54;100.00
61014;BME280;46899;47.542;19.082;2023-05-23T00:23:46;100147.28;;;14.51;100.00
61014;BME280;46899;47.542;19.082;2023-05-23T00:26:49;100143.91;;;14.49;100.00
61014;BME280;46899;47.542;19.082;2023-05-23T00:29:52;100144.91;;;14.47;100.00
61014;BME280;46899;47.542;19.082;2023-05-23T00:32:54;100144.41;;;14.40;100.00
61014;BME280;46899;47.542;19.082;2023-05-23T00:35:58;100146.63;;;14.48;100.00
61014;BME280;46899;47.542;19.082;2023-05-23T00:39:00;100147.88;;;14.41;100.00
61014;BME280;46899;47.542;19.082;2023-05-23T00:42:04;100149.81;;;14.37;100.00
61014;BME280;46899;47.542;19.082;2023-05-23T00:45:08;100147.28;;;14.35;100.00
61014;BME280;46899;47.542;19.082;2023-05-23T00:48:11;100150.81;;;14.34;100.00
61014;BME280;46899;47.542;19.082;2023-05-23T00:51:13;100152.59;;;14.34;100.00
61014;BME280;46899;47.542;19.082;2023-05-23T00:54:19;100149.28;;;14.30;100.00
61014;BME280;46899;47.542;19.082;2023-05-23T00:57:23;100148.38;;;14.31;100.00
61014;BME280;46899;47.542;19.082;2023-05-23T01:00:26;100145.66;;;14.33;100.00
61014;BME280;46899;47.542;19.082;2023-05-23T01:03:30;100145.66;;;14.33;100.00
61014;BME280;46899;47.542;19.082;2023-05-23T01:06:33;100148.13;;;14.36;100.00
61014;BME280;46899;47.542;19.082;2023-05-23T01:09:35;100145.75;;;14.31;100.00
61014;BME280;46899;47.542;19.082;2023-05-23T01:16:04;100142.56;;;14.25;100.00
61014;BME280;46899;47.542;19.082;2023-05-23T01:29:13;100140.62;;;14.13;100.00
61014;BME280;46899;47.542;19.082;2023-05-23T01:32:21;100129.38;;;14.11;100.00
61014;BME280;46899;47.542;19.082;2023-05-23T01:35:25;100136.69;;;14.04;100.00
61014;BME280;46899;47.542;19.082;2023-05-23T01:38:28;100134.19;;;14.03;100.00
61014;BME280;46899;47.542;19.082;2023-05-23T01:41:31;100136.09;;;13.99;100.00
61014;BME280;46899;47.542;19.082;2023-05-23T01:44:34;100138.87;;;13.96;100.00
61014;BME280;46899;47.542;19.082;2023-05-23T01:47:37;100133.91;;;13.92;100.00
61014;BME280;46899;47.542;19.082;2023-05-23T01:50:41;100136.81;;;13.86;100.00
61014;BME280;46899;47.542;19.082;2023-05-23T01:53:46;100130.81;;;13.84;100.00
61014;BME280;46899;47.542;19.082;2023-05-23T01:56:49;100128.53;;;13.78;100.00
61014;BME280;46899;47.542;19.082;2023-05-23T01:59:52;100128.69;;;13.75;100.00
61014;BME280;46899;47.542;19.082;2023-05-23T02:02:55;100127.94;;;13.73;100.00
61014;BME280;46899;47.542;19.082;2023-05-23T02:05:58;100116.53;;;13.73;100.00
61014;BME280;46899;47.542;19.082;2023-05-23T02:09:01;100121.09;;;13.70;100.00
61014;BME280;46899;47.542;19.082;2023-05-23T02:12:06;100115.91;;;13.68;100.00
61014;BME280;46899;47.542;19.082;2023-05-23T02:15:08;100117.16;;;13.61;100.00
61014;BME280;46899;47.542;19.082;2023-05-23T02:18:11;100114.38;;;13.64;100.00
61014;BME280;46899;47.542;19.082;2023-05-23T02:21:16;100112.78;;;13.62;100.00
61014;BME280;46899;47.542;19.082;2023-05-23T02:24:18;100122.56;;;13.58;100.00
61014;BME280;46899;47.542;19.082;2023-05-23T02:27:21;100120.84;;;13.57;100.00
61014;BME280;46899;47.542;19.082;2023-05-23T02:30:23;100120.94;;;13.56;100.00
61014;BME280;46899;47.542;19.082;2023-05-23T02:33:26;100126.22;;;13.54;100.00
61014;BME280;46899;47.542;19.082;2023-05-23T02:36:28;100120.31;;;13.51;100.00
61014;BME280;46899;47.542;19.082;2023-05-23T02:39:31;100120.47;;;13.48;100.00
61014;BME280;46899;47.542;19.082;2023-05-23T02:42:33;100117.25;;;13.43;100.00
61014;BME280;46899;47.542;19.082;2023-05-23T02:45:36;100114.72;;;13.41;100.00
61014;BME280;46899;47.542;19.082;2023-05-23T02:48:38;100118.25;;;13.40;100.00
61014;BME280;46899;47.542;19.082;2023-05-23T02:51:41;100117.47;;;13.38;100.00
61014;BME280;46899;47.542;19.082;2023-05-23T02:54:43;100116.78;;;13.35;100.00
61014;BME280;46899;47.542;19.082;2023-05-23T02:57:47;100118.69;;;13.31;100.00
61014;BME280;46899;47.542;19.082;2023-05-23T03:00:49;100115.19;;;13.32;100.00
61014;BME280;46899;47.542;19.082;2023-05-23T03:03:52;100121.16;;;13.34;100.00
61014;BME280;46899;47.542;19.082;2023-05-23T03:06:54;100115.84;;;13.36;100.00
61014;BME280;46899;47.542;19.082;2023-05-23T03:09:58;100118.56;;;13.34;100.00
61014;BME280;46899;47.542;19.082;2023-05-23T03:13:00;100116.94;;;13.32;100.00
61014;BME280;46899;47.542;19.082;2023-05-23T03:16:03;100116.84;;;13.33;100.00
61014;BME280;46899;47.542;19.082;2023-05-23T03:19:06;100116.72;;;13.36;100.00
61014;BME280;46899;47.542;19.082;2023-05-23T03:22:09;100119.22;;;13.38;100.00
61014;BME280;46899;47.542;19.082;2023-05-23T03:25:13;100121.66;;;13.42;100.00
61014;BME280;46899;47.542;19.082;2023-05-23T03:28:16;100129.16;;;13.48;100.00
61014;BME280;46899;47.542;19.082;2023-05-23T03:31:19;100130.69;;;13.52;100.00
61014;BME280;46899;47.542;19.082;2023-05-23T03:34:22;100134.69;;;13.59;100.00
61014;BME280;46899;47.542;19.082;2023-05-23T03:37:24;100128.31;;;13.65;100.00
61014;BME280;46899;47.542;19.082;2023-05-23T03:40:27;100123.53;;;13.73;100.00
61014;BME280;46899;47.542;19.082;2023-05-23T03:43:30;100111.06;;;13.78;100.00
61014;BME280;46899;47.542;19.082;2023-05-23T03:46:32;100119.59;;;13.82;100.00
61014;BME280;46899;47.542;19.082;2023-05-23T03:49:35;100115.97;;;13.84;100.00
61014;BME280;46899;47.542;19.082;2023-05-23T03:52:38;100116.59;;;13.89;100.00
61014;BME280;46899;47.542;19.082;2023-05-23T03:55:40;100120.81;;;13.92;100.00
61014;BME280;46899;47.542;19.082;2023-05-23T03:58:44;100125.19;;;13.91;100.00
61014;BME280;46899;47.542;19.082;2023-05-23T04:01:47;100124.19;;;13.94;100.00
61014;BME280;46899;47.542;19.082;2023-05-23T04:04:50;100121.34;;;13.98;100.00
61014;BME280;46899;47.542;19.082;2023-05-23T04:07:52;100116.47;;;14.08;100.00
61014;BME280;46899;47.542;19.082;2023-05-23T04:10:55;100119.44;;;14.17;100.00
61014;BME280;46899;47.542;19.082;2023-05-23T04:13:58;100119.00;;;14.25;100.00
61014;BME280;46899;47.542;19.082;2023-05-23T04:17:01;100123.81;;;14.34;100.00
61014;BME280;46899;47.542;19.082;2023-05-23T04:20:07;100125.69;;;14.48;100.00
61014;BME280;46899;47.542;19.082;2023-05-23T04:23:11;100131.25;;;14.57;100.00
61014;BME280;46899;47.542;19.082;2023-05-23T04:26:13;100134.56;;;14.76;100.00
61014;BME280;46899;47.542;19.082;2023-05-23T04:29:18;100134.63;;;14.90;100.00
61014;BME280;46899;47.542;19.082;2023-05-23T04:32:22;100124.38;;;15.01;100.00
61014;BME280;46899;47.542;19.082;2023-05-23T04:35:25;100129.84;;;15.13;100.00
61014;BME280;46899;47.542;19.082;2023-05-23T04:38:30;100133.06;;;15.18;100.00
61014;BME280;46899;47.542;19.082;2023-05-23T04:41:35;100127.28;;;15.27;100.00
61014;BME280;46899;47.542;19.082;2023-05-23T04:44:38;100132.56;;;15.41;100.00
61014;BME280;46899;47.542;19.082;2023-05-23T04:47:41;100133.00;;;15.49;100.00
61014;BME280;46899;47.542;19.082;2023-05-23T04:50:46;100128.06;;;15.58;100.00
61014;BME280;46899;47.542;19.082;2023-05-23T04:53:53;100120.12;;;15.74;100.00
61014;BME280;46899;47.542;19.082;2023-05-23T04:56:55;100123.16;;;15.82;100.00
61014;BME280;46899;47.542;19.082;2023-05-23T04:59:58;100120.72;;;15.93;100.00
61014;BME280;46899;47.542;19.082;2023-05-23T05:03:03;100122.03;;;16.14;100.00
61014;BME280;46899;47.542;19.082;2023-05-23T05:06:07;100119.88;;;16.21;100.00
61014;BME280;46899;47.542;19.082;2023-05-23T05:09:10;100120.88;;;16.32;100.00
61014;BME280;46899;47.542;19.082;2023-05-23T05:12:12;100118.53;;;16.42;100.00
61014;BME280;46899;47.542;19.082;2023-05-23T05:15:15;100121.63;;;16.49;100.00
61014;BME280;46899;47.542;19.082;2023-05-23T05:18:20;100120.97;;;16.59;100.00
61014;BME280;46899;47.542;19.082;2023-05-23T05:21:22;100116.28;;;16.64;100.00
61014;BME280;46899;47.542;19.082;2023-05-23T05:24:25;100127.38;;;16.82;100.00
61014;BME280;46899;47.542;19.082;2023-05-23T05:27:28;100132.53;;;17.10;100.00
61014;BME280;46899;47.542;19.082;2023-05-23T05:30:32;100125.56;;;17.23;100.00
61014;BME280;46899;47.542;19.082;2023-05-23T05:33:37;100130.31;;;17.43;100.00
61014;BME280;46899;47.542;19.082;2023-05-23T05:36:40;100129.47;;;17.57;100.00
61014;BME280;46899;47.542;19.082;2023-05-23T05:39:48;100122.63;;;17.80;98.04
61014;BME280;46899;47.542;19.082;2023-05-23T05:42:51;100126.72;;;18.34;96.91
61014;BME280;46899;47.542;19.082;2023-05-23T05:45:55;100133.19;;;18.66;90.81
61014;BME280;46899;47.542;19.082;2023-05-23T05:48:58;100131.81;;;18.73;92.50
61014;BME280;46899;47.542;19.082;2023-05-23T05:52:00;100129.69;;;18.78;91.43
61014;BME280;46899;47.542;19.082;2023-05-23T05:55:06;100122.81;;;18.88;92.17
61014;BME280;46899;47.542;19.082;2023-05-23T05:58:09;100133.25;;;19.37;86.64
61014;BME280;46899;47.542;19.082;2023-05-23T06:01:15;100128.63;;;19.28;87.40
61014;BME280;46899;47.542;19.082;2023-05-23T06:04:18;100131.59;;;19.24;87.55
61014;BME280;46899;47.542;19.082;2023-05-23T06:07:21;100122.28;;;19.07;88.10
61014;BME280;46899;47.542;19.082;2023-05-23T06:10:24;100125.47;;;18.99;90.65
61014;BME280;46899;47.542;19.082;2023-05-23T06:13:27;100118.94;;;19.05;90.33
61014;BME280;46899;47.542;19.082;2023-05-23T06:16:29;100122.97;;;19.22;91.12
61014;BME280;46899;47.542;19.082;2023-05-23T06:19:32;100124.63;;;19.46;88.42
61014;BME280;46899;47.542;19.082;2023-05-23T06:22:35;100135.56;;;19.53;86.01
61014;BME280;46899;47.542;19.082;2023-05-23T06:25:38;100132.50;;;19.81;85.05
61014;BME280;46899;47.542;19.082;2023-05-23T06:28:41;100134.00;;;20.07;84.19
61014;BME280;46899;47.542;19.082;2023-05-23T06:31:43;100132.31;;;20.17;79.99
61014;BME280;46899;47.542;19.082;2023-05-23T06:34:46;100131.06;;;20.23;79.75
61014;BME280;46899;47.542;19.082;2023-05-23T06:37:49;100137.78;;;20.27;77.59
61014;BME280;46899;47.542;19.082;2023-05-23T06:40:52;100127.78;;;20.53;77.98
61014;BME280;46899;47.542;19.082;2023-05-23T06:43:55;100122.63;;;20.94;76.37
61014;BME280;46899;47.542;19.082;2023-05-23T06:46:57;100124.53;;;22.47;70.14
61014;BME280;46899;47.542;19.082;2023-05-23T06:50:00;100131.78;;;25.97;53.20
61014;BME280;46899;47.542;19.082;2023-05-23T06:53:03;100131.84;;;29.65;44.59
61014;BME280;46899;47.542;19.082;2023-05-23T06:56:06;100131.94;;;32.09;35.89
61014;BME280;46899;47.542;19.082;2023-05-23T06:59:11;100131.72;;;33.92;33.07
61014;BME280;46899;47.542;19.082;2023-05-23T07:02:14;100118.69;;;34.46;30.79
61014;BME280;46899;47.542;19.082;2023-05-23T07:05:17;100127.69;;;36.09;29.93
61014;BME280;46899;47.542;19.082;2023-05-23T07:08:20;100120.91;;;36.18;28.71
61014;BME280;46899;47.542;19.082;2023-05-23T07:11:24;100129.34;;;36.83;26.90
61014;BME280;46899;47.542;19.082;2023-05-23T07:14:27;100116.91;;;37.99;26.97
61014;BME280;46899;47.542;19.082;2023-05-23T07:17:30;100112.94;;;39.21;25.41
61014;BME280;46899;47.542;19.082;2023-05-23T07:20:34;100106.31;;;39.17;26.28
61014;BME280;46899;47.542;19.082;2023-05-23T07:23:39;100096.88;;;38.40;25.11
61014;BME280;46899;47.542;19.082;2023-05-23T07:26:42;100094.13;;;39.53;23.73
61014;BME280;46899;47.542;19.082;2023-05-23T07:29:45;100107.84;;;40.29;25.43
61014;BME280;46899;47.542;19.082;2023-05-23T07:32:48;100106.62;;;40.20;23.51
61014;BME280;46899;47.542;19.082;2023-05-23T07:35:51;100109.56;;;40.79;24.05
61014;BME280;46899;47.542;19.082;2023-05-23T07:38:53;100109.72;;;41.21;22.01
61014;BME280;46899;47.542;19.082;2023-05-23T07:41:56;100108.22;;;40.81;22.30
61014;BME280;46899;47.542;19.082;2023-05-23T07:44:59;100102.78;;;41.08;21.93
61014;BME280;46899;47.542;19.082;2023-05-23T07:48:02;100100.78;;;40.34;23.38
61014;BME280;46899;47.542;19.082;2023-05-23T07:51:05;100095.41;;;40.82;23.97
61014;BME280;46899;47.542;19.082;2023-05-23T07:54:08;100085.41;;;41.19;21.82
61014;BME280;46899;47.542;19.082;2023-05-23T07:57:13;100089.81;;;40.28;23.19
61014;BME280;46899;47.542;19.082;2023-05-23T08:00:19;100081.13;;;41.02;22.56
61014;BME280;46899;47.542;19.082;2023-05-23T08:03:23;100081.63;;;40.99;24.25
61014;BME280;46899;47.542;19.082;2023-05-23T08:06:27;100078.00;;;41.46;22.25
61014;BME280;46899;47.542;19.082;2023-05-23T08:09:30;100075.22;;;41.10;21.65
61014;BME280;46899;47.542;19.082;2023-05-23T08:12:33;100067.00;;;40.83;22.55
61014;BME280;46899;47.542;19.082;2023-05-23T08:15:36;100079.44;;;41.54;23.96
61014;BME280;46899;47.542;19.082;2023-05-23T08:18:39;100081.56;;;41.84;22.20
61014;BME280;46899;47.542;19.082;2023-05-23T08:21:42;100079.66;;;41.47;22.18
61014;BME280;46899;47.542;19.082;2023-05-23T08:24:46;100078.91;;;41.99;21.35
61014;BME280;46899;47.542;19.082;2023-05-23T08:27:48;100084.16;;;41.64;21.07
61014;BME280;46899;47.542;19.082;2023-05-23T08:30:51;100073.63;;;42.34;21.08
61014;BME280;46899;47.542;19.082;2023-05-23T08:33:55;100079.78;;;42.61;20.13
61014;BME280;46899;47.542;19.082;2023-05-23T08:36:58;100077.28;;;42.03;21.35
61014;BME280;46899;47.542;19.082;2023-05-23T08:40:01;100079.94;;;41.51;20.62
61014;BME280;46899;47.542;19.082;2023-05-23T08:43:05;100069.12;;;40.54;21.58
61014;BME280;46899;47.542;19.082;2023-05-23T08:46:08;100064.63;;;41.18;20.87
61014;BME280;46899;47.542;19.082;2023-05-23T08:49:11;100059.44;;;39.82;22.73
61014;BME280;46899;47.542;19.082;2023-05-23T08:52:15;100061.66;;;40.45;22.82
61014;BME280;46899;47.542;19.082;2023-05-23T08:55:19;100066.63;;;41.59;22.79
61014;BME280;46899;47.542;19.082;2023-05-23T08:58:23;100058.75;;;39.91;22.41
61014;BME280;46899;47.542;19.082;2023-05-23T09:01:30;100066.69;;;41.33;22.02
61014;BME280;46899;47.542;19.082;2023-05-23T09:04:36;100061.13;;;40.91;20.33
61014;BME280;46899;47.542;19.082;2023-05-23T09:07:39;100055.94;;;40.94;20.75
61014;BME280;46899;47.542;19.082;2023-05-23T09:10:41;100062.28;;;41.27;20.62
61014;BME280;46899;47.542;19.082;2023-05-23T09:13:44;100062.25;;;40.47;22.50
61014;BME280;46899;47.542;19.082;2023-05-23T09:16:47;100060.41;;;41.06;21.74
61014;BME280;46899;47.542;19.082;2023-05-23T09:19:50;100063.09;;;40.30;21.04
61014;BME280;46899;47.542;19.082;2023-05-23T09:22:54;100052.88;;;37.04;25.11
61014;BME280;46899;47.542;19.082;2023-05-23T09:26:06;100049.59;;;35.32;28.55
61014;BME280;46899;47.542;19.082;2023-05-23T09:29:09;100036.38;;;33.45;30.43
61014;BME280;46899;47.542;19.082;2023-05-23T09:32:12;100038.38;;;32.78;31.78
61014;BME280;46899;47.542;19.082;2023-05-23T09:35:15;100041.88;;;32.65;31.70
61014;BME280;46899;47.542;19.082;2023-05-23T09:38:23;100033.50;;;32.00;33.86
61014;BME280;46899;47.542;19.082;2023-05-23T09:41:28;100032.03;;;31.97;35.24
61014;BME280;46899;47.542;19.082;2023-05-23T09:44:31;100035.84;;;32.16;31.82
61014;BME280;46899;47.542;19.082;2023-05-23T09:47:34;100031.72;;;31.51;32.92
61014;BME280;46899;47.542;19.082;2023-05-23T09:50:36;100029.78;;;31.73;33.73
61014;BME280;46899;47.542;19.082;2023-05-23T09:53:39;100033.72;;;31.98;33.56
61014;BME280;46899;47.542;19.082;2023-05-23T09:56:42;100036.50;;;31.90;31.59
61014;BME280;46899;47.542;19.082;2023-05-23T09:59:50;100028.41;;;32.18;31.46
61014;BME280;46899;47.542;19.082;2023-05-23T10:02:54;100023.34;;;32.02;31.30
61014;BME280;46899;47.542;19.082;2023-05-23T10:06:01;100021.91;;;31.71;32.86
61014;BME280;46899;47.542;19.082;2023-05-23T10:09:06;100025.28;;;31.80;32.58
61014;BME280;46899;47.542;19.082;2023-05-23T10:15:36;100024.72;;;31.57;32.78
61014;BME280;46899;47.542;19.082;2023-05-23T10:18:43;100014.56;;;31.59;33.86
61014;BME280;46899;47.542;19.082;2023-05-23T10:21:49;100008.56;;;31.57;32.07
61014;BME280;46899;47.542;19.082;2023-05-23T10:24:51;100008.88;;;31.75;30.56
61014;BME280;46899;47.542;19.082;2023-05-23T10:27:55;99999.47;;;31.92;31.79
61014;BME280;46899;47.542;19.082;2023-05-23T10:31:04;100009.31;;;31.44;32.88
61014;BME280;46899;47.542;19.082;2023-05-23T10:34:09;100004.06;;;31.64;34.57
61014;BME280;46899;47.542;19.082;2023-05-23T10:37:17;99993.69;;;30.70;36.20
61014;BME280;46899;47.542;19.082;2023-05-23T10:40:23;99997.97;;;30.28;37.52
61014;BME280;46899;47.542;19.082;2023-05-23T10:43:47;99995.59;;;30.19;37.81
61014;BME280;46899;47.542;19.082;2023-05-23T10:46:55;99996.75;;;29.81;36.95
61014;BME280;46899;47.542;19.082;2023-05-23T10:50:00;99995.25;;;29.93;37.15
61014;BME280;46899;47.542;19.082;2023-05-23T10:53:03;99990.28;;;30.25;37.46
61014;BME280;46899;47.542;19.082;2023-05-23T10:56:07;99982.91;;;30.63;37.38
61014;BME280;46899;47.542;19.082;2023-05-23T10:59:18;99982.00;;;30.56;37.15
61014;BME280;46899;47.542;19.082;2023-05-23T11:02:24;99988.88;;;31.29;34.96
61014;BME280;46899;47.542;19.082;2023-05-23T11:05:27;99980.47;;;31.66;34.57
61014;BME280;46899;47.542;19.082;2023-05-23T11:08:37;99970.56;;;32.07;34.79
61014;BME280;46899;47.542;19.082;2023-05-23T11:14:53;99966.75;;;31.54;34.34
61014;BME280;46899;47.542;19.082;2023-05-23T11:17:57;99962.56;;;30.54;35.41
61014;BME280;46899;47.542;19.082;2023-05-23T11:21:00;99957.03;;;30.41;37.48
61014;BME280;46899;47.542;19.082;2023-05-23T11:24:04;99953.53;;;30.83;36.82
61014;BME280;46899;47.542;19.082;2023-05-23T11:27:10;99950.53;;;30.71;35.89
61014;BME280;46899;47.542;19.082;2023-05-23T11:30:13;99942.59;;;30.84;36.85
61014;BME280;46899;47.542;19.082;2023-05-23T11:33:17;99935.81;;;30.88;36.41
61014;BME280;46899;47.542;19.082;2023-05-23T11:36:20;99938.44;;;30.25;37.02
61014;BME280;46899;47.542;19.082;2023-05-23T11:39:22;99931.59;;;29.72;38.24
61014;BME280;46899;47.542;19.082;2023-05-23T11:42:25;99933.37;;;29.13;39.30
61014;BME280;46899;47.542;19.082;2023-05-23T11:45:28;99922.38;;;28.71;40.34
61014;BME280;46899;47.542;19.082;2023-05-23T11:48:30;99918.63;;;28.80;39.76
61014;BME280;46899;47.542;19.082;2023-05-23T11:51:33;99915.03;;;29.25;39.37
61014;BME280;46899;47.542;19.082;2023-05-23T11:54:36;99910.78;;;29.59;37.83
61014;BME280;46899;47.542;19.082;2023-05-23T11:57:38;99910.34;;;29.41;37.13
61014;BME280;46899;47.542;19.082;2023-05-23T12:00:44;99900.63;;;29.55;37.89
61014;BME280;46899;47.542;19.082;2023-05-23T12:03:48;99894.22;;;29.85;36.92
61014;BME280;46899;47.542;19.082;2023-05-23T12:06:51;99894.72;;;30.31;36.37
61014;BME280;46899;47.542;19.082;2023-05-23T12:09:56;99888.09;;;30.48;36.30
61014;BME280;46899;47.542;19.082;2023-05-23T12:12:59;99880.44;;;30.66;36.43
61014;BME280;46899;47.542;19.082;2023-05-23T12:16:02;99880.53;;;30.16;37.65
61014;BME280;46899;47.542;19.082;2023-05-23T12:19:06;99881.31;;;30.31;37.20
61014;BME280;46899;47.542;19.082;2023-05-23T12:22:09;99872.25;;;30.81;36.12
61014;BME280;46899;47.542;19.082;2023-05-23T12:25:11;99865.56;;;30.91;35.74
61014;BME280;46899;47.542;19.082;2023-05-23T12:28:14;99868.44;;;31.24;33.84
61014;BME280;46899;47.542;19.082;2023-05-23T12:31:17;99861.25;;;31.31;34.27
61014;BME280;46899;47.542;19.082;2023-05-23T12:34:21;99851.47;;;31.24;34.43
61014;BME280;46899;47.542;19.082;2023-05-23T12:37:23;99852.16;;;30.98;34.44
61014;BME280;46899;47.542;19.082;2023-05-23T12:40:27;99850.69;;;31.23;34.14
61014;BME280;46899;47.542;19.082;2023-05-23T12:43:29;99843.63;;;31.22;34.00
61014;BME280;46899;47.542;19.082;2023-05-23T12:46:35;99849.28;;;31.34;33.29
61014;BME280;46899;47.542;19.082;2023-05-23T12:49:37;99836.62;;;31.28;33.89
61014;BME280;46899;47.542;19.082;2023-05-23T12:52:40;99833.59;;;31.03;33.35
61014;BME280;46899;47.542;19.082;2023-05-23T12:55:42;99834.16;;;30.71;35.16
61014;BME280;46899;47.542;19.082;2023-05-23T12:58:45;99828.78;;;30.43;35.69
61014;BME280;46899;47.542;19.082;2023-05-23T13:01:48;99832.81;;;29.97;35.84
61014;BME280;46899;47.542;19.082;2023-05-23T13:04:50;99824.97;;;30.16;34.43
61014;BME280;46899;47.542;19.082;2023-05-23T13:07:53;99821.41;;;30.52;34.26
61014;BME280;46899;47.542;19.082;2023-05-23T13:10:56;99807.19;;;30.15;35.71
61014;BME280;46899;47.542;19.082;2023-05-23T13:13:59;99804.97;;;29.98;35.78
61014;BME280;46899;47.542;19.082;2023-05-23T13:17:02;99809.50;;;29.76;35.55
61014;BME280;46899;47.542;19.082;2023-05-23T13:20:05;99805.84;;;29.33;36.53
61014;BME280;46899;47.542;19.082;2023-05-23T13:23:09;99809.91;;;29.44;36.84
61014;BME280;46899;47.542;19.082;2023-05-23T13:26:11;99808.50;;;29.77;36.46
61014;BME280;46899;47.542;19.082;2023-05-23T13:29:15;99812.44;;;30.23;35.35
61014;BME280;46899;47.542;19.082;2023-05-23T13:32:18;99813.41;;;29.95;35.43
61014;BME280;46899;47.542;19.082;2023-05-23T13:35:21;99798.56;;;30.20;36.26
61014;BME280;46899;47.542;19.082;2023-05-23T13:38:23;99801.75;;;30.30;36.47
61014;BME280;46899;47.542;19.082;2023-05-23T13:41:28;99796.56;;;30.22;35.54
61014;BME280;46899;47.542;19.082;2023-05-23T13:44:30;99797.31;;;30.37;34.02
61014;BME280;46899;47.542;19.082;2023-05-23T13:47:33;99797.44;;;30.29;34.98
61014;BME280;46899;47.542;19.082;2023-05-23T13:50:36;99800.88;;;30.44;35.65
61014;BME280;46899;47.542;19.082;2023-05-23T13:53:39;99805.16;;;29.96;35.79
61014;BME280;46899;47.542;19.082;2023-05-23T13:56:41;99796.94;;;30.19;34.82
61014;BME280;46899;47.542;19.082;2023-05-23T13:59:45;99795.91;;;30.69;34.45
61014;BME280;46899;47.542;19.082;2023-05-23T14:02:47;99787.50;;;30.78;34.48
61014;BME280;46899;47.542;19.082;2023-05-23T14:05:50;99791.31;;;30.90;33.12
61014;BME280;46899;47.542;19.082;2023-05-23T14:08:52;99799.19;;;30.64;32.61
61014;BME280;46899;47.542;19.082;2023-05-23T14:11:55;99792.78;;;30.37;33.78
61014;BME280;46899;47.542;19.082;2023-05-23T14:14:57;99787.19;;;30.39;33.49
61014;BME280;46899;47.542;19.082;2023-05-23T14:18:00;99784.41;;;30.05;33.17
61014;BME280;46899;47.542;19.082;2023-05-23T14:21:02;99784.00;;;30.08;32.88
61014;BME280;46899;47.542;19.082;2023-05-23T14:24:05;99771.66;;;30.13;33.10
61014;BME280;46899;47.542;19.082;2023-05-23T14:27:08;99767.13;;;30.14;33.34
61014;BME280;46899;47.542;19.082;2023-05-23T14:30:12;99773.44;;;30.27;32.51
61014;BME280;46899;47.542;19.082;2023-05-23T14:33:15;99767.78;;;29.95;31.90
61014;BME280;46899;47.542;19.082;2023-05-23T14:36:18;99771.56;;;29.79;33.83
61014;BME280;46899;47.542;19.082;2023-05-23T14:39:20;99774.25;;;29.79;31.84
61014;BME280;46899;47.542;19.082;2023-05-23T14:42:23;99769.62;;;29.94;31.66
61014;BME280;46899;47.542;19.082;2023-05-23T14:45:25;99767.66;;;30.03;32.11
61014;BME280;46899;47.542;19.082;2023-05-23T14:48:28;99767.91;;;30.08;31.75
61014;BME280;46899;47.542;19.082;2023-05-23T14:51:31;99772.19;;;30.23;32.06
61014;BME280;46899;47.542;19.082;2023-05-23T14:54:50;99768.16;;;30.34;32.14
61014;BME280;46899;47.542;19.082;2023-05-23T14:57:52;99769.03;;;30.41;31.77
61014;BME280;46899;47.542;19.082;2023-05-23T15:00:55;99776.88;;;30.36;31.95
61014;BME280;46899;47.542;19.082;2023-05-23T15:03:58;99777.63;;;30.09;31.71
61014;BME280;46899;47.542;19.082;2023-05-23T15:07:01;99786.63;;;29.80;32.85
61014;BME280;46899;47.542;19.082;2023-05-23T15:10:04;99783.56;;;29.68;33.06
61014;BME280;46899;47.542;19.082;2023-05-23T15:13:08;99780.84;;;29.47;32.72
61014;BME280;46899;47.542;19.082;2023-05-23T15:16:10;99783.81;;;29.52;33.00
61014;BME280;46899;47.542;19.082;2023-05-23T15:19:13;99778.81;;;29.49;33.50
61014;BME280;46899;47.542;19.082;2023-05-23T15:22:16;99774.75;;;29.53;33.76
61014;BME280;46899;47.542;19.082;2023-05-23T15:25:38;99782.97;;;29.52;33.84
61014;BME280;46899;47.542;19.082;2023-05-23T15:28:51;99781.72;;;29.33;34.11
61014;BME280;46899;47.542;19.082;2023-05-23T15:31:53;99789.94;;;29.17;34.95
61014;BME280;46899;47.542;19.082;2023-05-23T15:34:56;99798.91;;;29.09;34.83
61014;BME280;46899;47.542;19.082;2023-05-23T15:37:58;99802.22;;;29.11;34.67
61014;BME280;46899;47.542;19.082;2023-05-23T15:41:01;99798.94;;;28.58;37.64
61014;BME280;46899;47.542;19.082;2023-05-23T15:44:04;99800.25;;;27.71;39.66
61014;BME280;46899;47.542;19.082;2023-05-23T15:47:07;99794.06;;;27.40;40.75
61014;BME280;46899;47.542;19.082;2023-05-23T15:50:10;99790.94;;;26.81;42.30
61014;BME280;46899;47.542;19.082;2023-05-23T15:53:15;99778.56;;;26.64;43.90
61014;BME280;46899;47.542;19.082;2023-05-23T15:56:18;99778.94;;;26.53;45.36
61014;BME280;46899;47.542;19.082;2023-05-23T15:59:20;99788.28;;;26.49;45.21
61014;BME280;46899;47.542;19.082;2023-05-23T16:02:23;99781.97;;;26.34;44.65
61014;BME280;46899;47.542;19.082;2023-05-23T16:05:26;99774.16;;;26.16;44.55
61014;BME280;46899;47.542;19.082;2023-05-23T16:08:28;99775.13;;;26.07;44.50